• Join FlightAware (Why Join?)
  • Login
  • US Flag 
Gobble Gobble! 
03:54PM EST


 

Airport Tracker/Info


-or-


 

Live Flight TrackerFlight Track Log ✈ DAL1515 ✈ 28-Aug-2013 ✈ KATL - KALB

Flight Track Log - Related Links

Times and Time Zones

All times are in EDT time to prevent confusion due to time zone crossing. See the DAL1515 flight status page for this flight to view local times or setup timezone preferences in your user account.

Time Position Orientation Groundspeed Altitude Reporting Facility
EDT Latitude Longitude Course Direction KTS MPH feet Rate Location/Type
09:18PM 33.6500 -84.4500 North 168 193 2,000  Level Atlanta TRACON
09:19PM 33.6667 -84.5167 287° West 233 268 3,300 1,920 Climbing Atlanta TRACON
09:20PM 33.8218 -84.1667 North  Level FlightAware Approximate
09:20PM 33.7000 -84.5833 301° West 266 306 5,700  Level Atlanta TRACON
09:21PM 33.9148 -84.2482 320° Northwest  Level FlightAware Approximate
09:21PM 33.7667 -84.5833 360° North 275 316 8,100  Level Atlanta TRACON
09:22PM 34.0268 -84.2667 North  Level FlightAware Approximate
09:23PM 34.1443 -84.2667 North  Level FlightAware Approximate
09:23PM 33.9314 -84.4094 41° Northeast 318 366 12,100  Level Atlanta Center
09:24PM 34.0339 -84.3747 16° North 361 415 14,400 1,920 Climbing Atlanta Center
09:25PM 34.1278 -84.3375 18° North 369 425 16,000 1,680 Climbing Atlanta Center
09:26PM 34.2428 -84.2975 16° North 408 470 17,800 1,680 Climbing Atlanta Center
09:27PM 34.3556 -84.2678 12° North 419 482 19,400 1,620 Climbing Atlanta Center
09:28PM 34.4744 -84.2403 11° North 424 488 21,100 1,440 Climbing Atlanta Center
09:29PM 34.5956 -84.2103 12° North 431 496 22,300 1,500 Climbing Atlanta Center
09:30PM 34.7144 -84.1853 10° North 431 496 24,100 1,740 Climbing Atlanta Center
09:31PM 34.8336 -84.1553 12° North 431 496 25,800 1,500 Climbing Atlanta Center
09:32PM 34.9525 -84.1275 11° North 431 496 27,200 1,320 Climbing Atlanta Center
09:33PM 35.0694 -84.0972 12° North 431 496 28,500 1,200 Climbing Atlanta Center
09:34PM 35.1861 -84.0692 11° North 431 496 29,700 1,200 Climbing Atlanta Center
09:35PM 35.3031 -84.0389 12° North 431 496 31,000 1,200 Climbing Atlanta Center
09:36PM 35.4200 -84.0108 11° North 431 496 32,200 960 Climbing Atlanta Center
09:37PM 35.5347 -83.9853 10° North 426 490 33,000 360 Climbing Atlanta Center
09:38PM 35.6453 -83.9594 11° North 421 484 33,000  Level Atlanta Center
09:39PM 35.7578 -83.9314 11° North 410 472 33,000  Level Atlanta Center
09:40PM 35.8683 -83.9031 12° North 410 472 33,000  Level Atlanta Center
09:41PM 35.9831 -83.8744 11° North 410 472 33,000  Level Atlanta Center
09:42PM 36.0853 -83.8128 26° Northeast 410 472 33,000  Level Atlanta Center
09:43PM 36.1789 -83.7275 36° Northeast 405 466 33,000  Level Atlanta Center
09:44PM 36.2725 -83.6472 35° Northeast 410 472 33,000  Level Atlanta Center
09:45PM 36.4056 -83.5292 36° Northeast 419 482 33,000  Level Indianapolis Center
09:46PM 36.4981 -83.4500 35° Northeast 420 483 33,000  Level Indianapolis Center
09:47PM 36.5956 -83.3675 34° Northeast 422 486 33,000  Level Indianapolis Center
09:48PM 36.6939 -83.2828 35° Northeast 424 488 33,000  Level Indianapolis Center
09:49PM 36.8058 -83.1839 35° Northeast 420 483 33,000  Level Indianapolis Center
09:50PM 36.8700 -83.0617 57° Northeast 427 491 33,000  Level Indianapolis Center
09:51PM 36.9125 -82.9467 65° Northeast 430 495 33,000  Level Indianapolis Center
09:53PM 36.9706 -82.7864 66° East 424 488 33,000  Level Indianapolis Center
09:54PM 37.0122 -82.6631 67° East 431 496 33,000  Level Indianapolis Center
09:55PM 37.0700 -82.5036 66° East 430 495 33,000  Level Indianapolis Center
09:56PM 37.1261 -82.3717 62° Northeast 431 496 33,000  Level Indianapolis Center
09:57PM 37.1836 -82.2397 61° Northeast 430 495 33,000  Level Indianapolis Center
09:58PM 37.2428 -82.1083 60° Northeast 433 498 33,000  Level Indianapolis Center
09:59PM 37.3014 -81.9750 61° Northeast 435 501 33,000  Level Indianapolis Center
10:00PM 37.3603 -81.8403 61° Northeast 439 505 33,000  Level Indianapolis Center
10:01PM 37.4225 -81.7075 59° Northeast 440 506 33,000  Level Indianapolis Center
10:02PM 37.4831 -81.5736 60° Northeast 440 506 33,000  Level Indianapolis Center
10:03PM 37.5506 -81.4264 60° Northeast 445 512 33,000  Level Indianapolis Center
10:04PM 37.6117 -81.2947 60° Northeast 448 516 33,000  Level Indianapolis Center
10:05PM 37.6953 -81.1944 43° Northeast 434 499 33,000  Level Indianapolis Center
10:06PM 37.8236 -81.1469 16° North 423 487 33,000  Level Indianapolis Center
10:07PM 37.9386 -81.1150 12° North 423 487 33,000  Level Indianapolis Center
10:08PM 38.0533 -81.0842 12° North 422 486 33,000  Level Indianapolis Center
10:09PM 38.1675 -81.0522 12° North 421 484 33,000  Level Indianapolis Center
10:10PM 38.2819 -81.0206 12° North 421 484 33,000  Level Indianapolis Center
10:11PM 38.3956 -80.9886 12° North 421 484 33,000  Level Indianapolis Center
10:12PM 38.5092 -80.9567 12° North 421 484 33,000  Level Indianapolis Center
10:13PM 38.6233 -80.9247 12° North 422 486 33,000  Level Indianapolis Center
10:14PM 38.7581 -80.8861 13° North 417 480 33,000  Level Indianapolis Center
10:15PM 38.8722 -80.8533 13° North 421 484 33,000  Level Indianapolis Center
10:16PM 38.9850 -80.8203 13° North 419 482 33,000  Level Indianapolis Center
10:17PM 39.0769 -80.7256 39° Northeast 431 496 33,000  Level Indianapolis Center
10:18PM 39.1567 -80.6150 47° Northeast 424 488 33,000  Level Indianapolis Center
10:19PM 39.2383 -80.5000 47° Northeast 432 497 33,000  Level Indianapolis Center
10:20PM 39.3186 -80.3864 48° Northeast 430 495 33,000  Level Indianapolis Center
10:21PM 39.3997 -80.2731 47° Northeast 429 494 33,000  Level Indianapolis Center
10:22PM 39.4817 -80.1569 48° Northeast 434 499 33,000  Level Indianapolis Center
10:23PM 39.5386 -80.0825 45° Northeast 423 487 33,000  Level Cleveland Center
10:24PM 39.6172 -79.9658 49° Northeast 423 487 33,000  Level Cleveland Center
10:25PM 39.6981 -79.8492 48° Northeast 423 487 33,000  Level Cleveland Center
10:26PM 39.7764 -79.7322 49° Northeast 423 487 33,000  Level Cleveland Center
10:27PM 39.8567 -79.6203 47° Northeast 423 487 33,000  Level Cleveland Center
10:28PM 39.9350 -79.5028 49° Northeast 423 487 33,000  Level Cleveland Center
10:29PM 40.0150 -79.3850 48° Northeast 423 487 33,000  Level Cleveland Center
10:30PM 40.0889 -79.2697 50° Northeast 423 487 33,000  Level Cleveland Center
10:31PM 40.1667 -79.1514 49° Northeast 423 487 33,000  Level Cleveland Center
10:32PM 40.2442 -79.0328 49° Northeast 423 487 33,000  Level Cleveland Center
10:33PM 40.3217 -78.9139 49° Northeast 423 487 33,000  Level Cleveland Center
10:34PM 40.3953 -78.8056 48° Northeast 423 487 33,000  Level Cleveland Center
10:36PM 40.5853 -78.5111 50° Northeast 428 493 33,000  Level New York Center
10:37PM 40.6639 -78.3914 49° Northeast 428 493 33,000  Level New York Center
10:38PM 40.7425 -78.2711 49° Northeast 428 493 33,000  Level New York Center
10:39PM 40.8281 -78.1378 50° Northeast 428 493 33,000  Level New York Center
10:40PM 40.9064 -78.0172 49° Northeast 433 498 33,000  Level New York Center
10:41PM 40.9844 -77.8989 49° Northeast 428 493 33,000  Level New York Center
10:42PM 41.0642 -77.7861 47° Northeast 428 493 33,000  Level New York Center
10:43PM 41.1442 -77.6650 49° Northeast 428 493 33,000 -840 Level New York Center
10:44PM 41.2214 -77.5542 47° Northeast 423 487 31,400 -1,980 Descending New York Center
10:45PM 41.3011 -77.4350 48° Northeast 423 487 29,100 -1,200 Descending New York Center
10:46PM 41.3733 -77.3317 47° Northeast 418 481 29,000 -60 Descending New York Center
10:47PM 41.4531 -77.2092 49° Northeast 423 487 29,000  Level New York Center
10:48PM 41.5436 -77.0739 48° Northeast 428 493 29,000  Level New York Center
10:49PM 41.6247 -76.9567 47° Northeast 433 498 29,000  Level New York Center
10:50PM 41.7061 -76.8336 48° Northeast 433 498 29,000  Level New York Center
10:51PM 41.7853 -76.7128 49° Northeast 433 498 29,000  Level New York Center
10:52PM 41.8639 -76.5917 49° Northeast 433 498 29,000 -960 Level New York Center
10:55PM 42.0969 -76.2431 48° Northeast 442 509 25,400 -1,320 Descending Boston Center
10:56PM 42.1700 -76.1156 52° Northeast 442 509 24,000 -720 Descending Boston Center
10:57PM 42.2203 -75.9728 65° Northeast 430 495 24,000  Level Boston Center
10:58PM 42.2644 -75.8236 68° East 417 480 24,000  Level Boston Center
10:59PM 42.3022 -75.6769 71° East 422 486 24,000  Level Boston Center
11:00PM 42.3417 -75.5272 70° East 417 480 24,000  Level Boston Center
11:01PM 42.3792 -75.3717 72° East 422 486 24,000 -720 Level Boston Center
11:02PM 42.4142 -75.2214 72° East 422 486 22,600 -1,980 Descending Boston Center
11:03PM 42.4511 -75.0739 71° East 417 480 20,100 -2,280 Descending Boston Center
11:04PM 42.4856 -74.9319 72° East 411 473 18,100 -2,220 Descending Boston Center
11:05PM 42.5064 -74.8342 74° East 382 440 16,300 -2,400 Descending Boston Center
11:06PM 42.5472 -74.6694 71° East 371 427 13,500 -2,160 Descending Boston Center
11:07PM 42.5789 -74.5408 71° East 359 413 11,600 -1,440 Descending Boston Center
11:08PM 42.5939 -74.4114 81° East 358 412 10,700 -720 Descending Boston Center
11:09PM 42.5958 -74.2875 89° East 318 366 10,200 -1,080 Descending Boston Center
11:10PM 42.5997 -74.1719 87° East 279 321 8,600 -1,560 Descending Boston Center
11:11PM 42.5992 -74.0647 90° East 279 321 7,100 -1,500 Descending Boston Center
11:12PM 42.6008 -73.9575 89° East 274 315 5,600 -1,260 Descending Boston Center
11:13PM 42.6019 -73.8672 89° East 260 299 4,600 -1,200 Descending Boston Center
11:14PM 42.6275 -73.8114 58° Northeast 183 211 3,200 -900 Descending Boston Center
11:15PM 42.6389 -73.7439 77° East 191 220 2,800 -1,260 Descending Boston Center
11:16PM 42.7172 -73.8050 330° Northwest 141 162 700 -2,040 Descending Boston Center